Time;durP1;ratioP1;P1;durP2;ratioP2;P2;SDS_P1;SDS_P2;PMS_P1;PMS_P2;Temp;Humidity;BMP_temperature;BMP_pressure;BME280_temperature;BME280_humidity;BME280_pressure;Samples;Min_cycle;Max_cycle;Signal;HPM_P1;HPM_P2
2024/02/25 00:00:19;;;;;;;15.80;4.03;;;;;;;;;;4861227;29;20821;-82
2024/02/25 00:02:46;;;;;;;18.70;4.27;;;;;;;;;;4860862;29;20261;-83
2024/02/25 00:05:16;;;;;;;12.80;4.10;;;;;;;;;;4861378;29;20237;-82
2024/02/25 00:07:43;;;;;;;15.77;4.20;;;;;;;;;;4864742;29;20583;-82
2024/02/25 00:10:12;;;;;;;16.30;4.47;;;;;;;;;;4879761;29;20304;-83
2024/02/25 00:12:38;;;;;;;15.53;3.73;;;;;;;;;;4879077;29;20296;-83
2024/02/25 00:15:06;;;;;;;14.07;3.20;;;;;;;;;;4879576;29;20245;-83
2024/02/25 00:17:33;;;;;;;9.80;3.30;;;;;;;;;;4879742;29;20301;-83
2024/02/25 00:20:00;;;;;;;16.23;3.03;;;;;;;;;;4879343;29;20220;-83
2024/02/25 00:22:29;;;;;;;14.37;3.60;;;;;;;;;;4879354;29;20261;-84
2024/02/25 00:24:56;;;;;;;14.60;4.33;;;;;;;;;;4879210;29;20206;-83
2024/02/25 00:27:25;;;;;;;12.43;3.60;;;;;;;;;;4878910;29;20297;-83
2024/02/25 00:29:52;;;;;;;11.27;3.50;;;;;;;;;;4879303;29;20206;-83
2024/02/25 00:32:19;;;;;;;14.37;3.47;;;;;;;;;;4879465;29;20261;-83
2024/02/25 00:34:46;;;;;;;13.20;3.17;;;;;;;;;;4879534;29;20660;-83
2024/02/25 00:37:14;;;;;;;14.57;3.07;;;;;;;;;;4879290;29;20285;-83
2024/02/25 00:39:41;;;;;;;11.00;3.20;;;;;;;;;;4879363;29;20230;-84
2024/02/25 00:42:08;;;;;;;11.30;2.90;;;;;;;;;;4878504;29;20317;-82
2024/02/25 00:44:38;;;;;;;15.10;3.20;;;;;;;;;;4879332;29;20293;-83
2024/02/25 00:47:05;;;;;;;21.23;3.17;;;;;;;;;;4878895;29;20282;-83
2024/02/25 00:49:33;;;;;;;14.53;3.13;;;;;;;;;;4878915;29;20707;-82
2024/02/25 00:52:00;;;;;;;10.07;3.40;;;;;;;;;;4879201;29;20237;-83
2024/02/25 00:54:27;;;;;;;13.23;3.50;;;;;;;;;;4878959;29;20241;-84
2024/02/25 00:56:54;;;;;;;15.07;3.27;;;;;;;;;;4878630;29;20202;-83
2024/02/25 00:59:22;;;;;;;12.33;2.90;;;;;;;;;;4878890;29;20285;-84
2024/02/25 01:01:51;;;;;;;16.10;3.23;;;;;;;;;;4878944;29;20328;-83
2024/02/25 01:04:19;;;;;;;14.03;2.70;;;;;;;;;;4879107;29;20225;-83
2024/02/25 01:06:48;;;;;;;18.73;3.17;;;;;;;;;;4878628;29;20698;-83
2024/02/25 01:09:15;;;;;;;16.27;2.90;;;;;;;;;;4878384;29;20601;-84
2024/02/25 01:11:42;;;;;;;13.00;2.83;;;;;;;;;;4877977;29;20322;-84
2024/02/25 01:14:11;;;;;;;14.70;2.77;;;;;;;;;;4878185;29;20229;-84
2024/02/25 01:16:39;;;;;;;14.90;3.17;;;;;;;;;;4878383;29;20202;-83
2024/02/25 01:19:08;;;;;;;11.00;2.90;;;;;;;;;;4878627;29;20199;-84
2024/02/25 01:21:35;;;;;;;13.33;3.20;;;;;;;;;;4878472;29;20261;-83
2024/02/25 01:24:02;;;;;;;8.40;2.50;;;;;;;;;;4878634;29;20743;-81
2024/02/25 01:26:30;;;;;;;14.07;3.20;;;;;;;;;;4878340;29;20293;-83
2024/02/25 01:28:57;;;;;;;14.13;3.33;;;;;;;;;;4878599;29;20290;-84
2024/02/25 01:31:24;;;;;;;14.50;2.97;;;;;;;;;;4878714;29;20297;-83
2024/02/25 01:33:51;;;;;;;11.60;3.07;;;;;;;;;;4877948;29;20288;-83
2024/02/25 01:36:20;;;;;;;11.93;2.63;;;;;;;;;;4878229;29;20742;-82
2024/02/25 01:38:47;;;;;;;13.47;3.03;;;;;;;;;;4878272;29;20652;-83
2024/02/25 01:41:14;;;;;;;12.63;3.27;;;;;;;;;;4877583;29;20238;-83
2024/02/25 01:43:42;;;;;;;12.17;3.30;;;;;;;;;;4878335;29;20204;-84
2024/02/25 01:46:10;;;;;;;9.97;3.00;;;;;;;;;;4878208;29;20288;-84
2024/02/25 01:48:37;;;;;;;10.47;3.07;;;;;;;;;;4878232;29;20624;-83
2024/02/25 01:51:05;;;;;;;12.03;3.17;;;;;;;;;;4878059;29;20687;-84
2024/02/25 01:53:33;;;;;;;14.53;3.17;;;;;;;;;;4878143;29;20207;-84
2024/02/25 01:56:01;;;;;;;15.87;3.07;;;;;;;;;;4877577;29;20229;-81
2024/02/25 01:58:29;;;;;;;13.23;2.97;;;;;;;;;;4878019;29;20217;-84
2024/02/25 02:00:56;;;;;;;10.57;2.93;;;;;;;;;;4878300;29;20206;-82
2024/02/25 02:03:23;;;;;;;9.20;2.97;;;;;;;;;;4877936;29;20261;-83
2024/02/25 02:05:50;;;;;;;16.57;3.40;;;;;;;;;;4877454;29;20250;-83
2024/02/25 02:08:18;;;;;;;14.97;3.37;;;;;;;;;;4877893;29;20684;-83
2024/02/25 02:10:47;;;;;;;16.57;3.40;;;;;;;;;;4877486;29;20220;-83
2024/02/25 02:13:14;;;;;;;12.43;3.20;;;;;;;;;;4877711;29;20659;-83
2024/02/25 02:15:42;;;;;;;10.20;2.93;;;;;;;;;;4878011;29;20285;-83
2024/02/25 02:18:09;;;;;;;12.37;3.00;;;;;;;;;;4878036;29;20217;-84
2024/02/25 02:20:37;;;;;;;11.97;3.10;;;;;;;;;;4877820;29;20227;-83
2024/02/25 02:23:06;;;;;;;15.33;3.43;;;;;;;;;;4877105;29;20239;-83
2024/02/25 02:25:34;;;;;;;19.53;3.50;;;;;;;;;;4880460;29;20252;-83
2024/02/25 02:28:02;;;;;;;12.80;3.40;;;;;;;;;;4881411;29;20241;-83
2024/02/25 02:30:29;;;;;;;14.03;3.60;;;;;;;;;;4881536;29;20246;-83
2024/02/25 02:32:56;;;;;;;16.63;3.20;;;;;;;;;;4881674;29;20212;-83
2024/02/25 02:35:23;;;;;;;13.07;3.60;;;;;;;;;;4881458;29;20629;-83
2024/02/25 02:37:50;;;;;;;9.23;2.93;;;;;;;;;;4880814;29;20233;-83
2024/02/25 02:40:21;;;;;;;14.37;3.67;;;;;;;;;;4881466;29;20745;-83
2024/02/25 02:42:52;;;;;;;15.40;3.60;;;;;;;;;;4881137;29;20230;-84
2024/02/25 02:45:19;;;;;;;13.37;3.47;;;;;;;;;;4881083;29;20206;-84
2024/02/25 02:47:47;;;;;;;15.77;4.03;;;;;;;;;;4881163;29;20292;-82
2024/02/25 02:50:14;;;;;;;18.23;3.47;;;;;;;;;;4881269;29;20345;-83
2024/02/25 02:52:41;;;;;;;12.37;3.90;;;;;;;;;;4880734;29;20683;-84
2024/02/25 02:55:09;;;;;;;11.73;3.70;;;;;;;;;;4880871;29;20202;-83
2024/02/25 02:57:37;;;;;;;15.37;3.33;;;;;;;;;;4881605;29;20687;-83
2024/02/25 03:00:05;;;;;;;17.10;3.90;;;;;;;;;;4881099;29;20212;-83
2024/02/25 03:02:33;;;;;;;14.03;3.43;;;;;;;;;;4881044;29;20233;-84
2024/02/25 03:04:59;;;;;;;14.10;3.73;;;;;;;;;;4880875;29;20202;-83
2024/02/25 03:07:28;;;;;;;8.87;2.90;;;;;;;;;;4880646;29;20205;-82
2024/02/25 03:09:55;;;;;;;15.47;3.63;;;;;;;;;;4880146;29;20680;-83
2024/02/25 03:12:22;;;;;;;10.13;3.67;;;;;;;;;;4880871;29;20241;-84
2024/02/25 03:14:51;;;;;;;13.73;3.47;;;;;;;;;;4881022;29;20296;-83
2024/02/25 03:17:20;;;;;;;14.03;3.43;;;;;;;;;;4880756;29;20198;-83
2024/02/25 03:19:47;;;;;;;15.97;3.63;;;;;;;;;;4880661;29;20206;-83
2024/02/25 03:22:14;;;;;;;16.17;3.87;;;;;;;;;;4880381;29;20236;-84
2024/02/25 03:24:42;;;;;;;19.13;4.17;;;;;;;;;;4880279;29;20237;-83
2024/02/25 03:27:11;;;;;;;12.83;4.07;;;;;;;;;;4880680;29;20715;-83
2024/02/25 03:29:38;;;;;;;15.50;3.50;;;;;;;;;;4880396;29;20237;-84
2024/02/25 03:32:08;;;;;;;9.17;3.57;;;;;;;;;;4880339;29;20292;-83
2024/02/25 03:34:35;;;;;;;17.37;3.90;;;;;;;;;;4880801;29;20266;-83
2024/02/25 03:37:02;;;;;;;15.07;4.07;;;;;;;;;;4879254;29;20301;-82
2024/02/25 03:39:29;;;;;;;16.47;4.17;;;;;;;;;;4880169;29;20630;-83
2024/02/25 03:41:57;;;;;;;12.17;3.53;;;;;;;;;;4872517;29;20317;-83
2024/02/25 03:44:26;;;;;;;14.50;4.17;;;;;;;;;;4862837;29;20672;-83
2024/02/25 03:46:53;;;;;;;18.33;4.10;;;;;;;;;;4869026;29;20746;-83
2024/02/25 03:49:22;;;;;;;11.03;4.30;;;;;;;;;;4880214;29;20284;-84
2024/02/25 03:51:49;;;;;;;13.33;4.13;;;;;;;;;;4879444;29;20325;-83
2024/02/25 03:54:16;;;;;;;17.30;4.10;;;;;;;;;;4880249;29;20232;-84
2024/02/25 03:56:43;;;;;;;16.00;4.10;;;;;;;;;;4880017;29;20289;-84
2024/02/25 03:59:10;;;;;;;11.10;3.50;;;;;;;;;;4879986;29;20289;-82
2024/02/25 04:01:37;;;;;;;12.07;3.63;;;;;;;;;;4880241;29;20707;-83
2024/02/25 04:04:05;;;;;;;12.57;3.57;;;;;;;;;;4879807;29;20260;-83
2024/02/25 04:06:33;;;;;;;15.67;3.87;;;;;;;;;;4879086;29;20205;-83
2024/02/25 04:09:01;;;;;;;12.70;3.27;;;;;;;;;;4879745;29;20206;-83
2024/02/25 04:11:28;;;;;;;9.30;3.63;;;;;;;;;;4879362;29;20297;-83
2024/02/25 04:13:55;;;;;;;11.07;3.40;;;;;;;;;;4879479;29;20253;-81
2024/02/25 04:16:23;;;;;;;16.40;3.87;;;;;;;;;;4879736;29;20288;-83
2024/02/25 04:18:51;;;;;;;9.97;3.23;;;;;;;;;;4879779;29;20570;-83
2024/02/25 04:21:18;;;;;;;15.43;3.87;;;;;;;;;;4879439;29;20202;-83
2024/02/25 04:23:47;;;;;;;10.87;3.27;;;;;;;;;;4879536;29;20324;-83
2024/02/25 04:26:14;;;;;;;14.83;3.23;;;;;;;;;;4879539;29;20300;-84
2024/02/25 04:28:41;;;;;;;10.40;3.17;;;;;;;;;;4879162;29;20205;-83
2024/02/25 04:31:09;;;;;;;12.03;2.97;;;;;;;;;;4879809;29;20228;-84
2024/02/25 04:33:36;;;;;;;11.23;3.20;;;;;;;;;;4879021;29;20291;-83
2024/02/25 04:36:03;;;;;;;14.47;3.40;;;;;;;;;;4879427;29;20213;-83
2024/02/25 04:38:31;;;;;;;10.90;3.47;;;;;;;;;;4878817;29;20687;-83
2024/02/25 04:41:02;;;;;;;12.93;3.03;;;;;;;;;;4879418;29;20208;-84
2024/02/25 04:43:30;;;;;;;14.80;3.10;;;;;;;;;;4878864;29;20688;-83
2024/02/25 04:45:57;;;;;;;11.73;2.90;;;;;;;;;;4879119;29;20616;-83
2024/02/25 04:48:24;;;;;;;14.47;3.10;;;;;;;;;;4878839;29;20662;-83
2024/02/25 04:50:54;;;;;;;8.47;2.73;;;;;;;;;;4878959;29;20234;-83
2024/02/25 04:53:21;;;;;;;13.03;2.63;;;;;;;;;;4878797;29;20198;-83
2024/02/25 04:55:48;;;;;;;18.07;2.87;;;;;;;;;;4878621;29;20208;-83
2024/02/25 04:58:17;;;;;;;14.60;2.70;;;;;;;;;;4879279;29;20644;-83
2024/02/25 05:00:44;;;;;;;15.27;2.77;;;;;;;;;;4878613;29;20684;-83
2024/02/25 05:03:12;;;;;;;16.27;3.27;;;;;;;;;;4878474;29;20244;-83
2024/02/25 05:05:39;;;;;;;16.27;2.87;;;;;;;;;;4879058;29;20212;-82
2024/02/25 05:08:06;;;;;;;8.20;2.47;;;;;;;;;;4878822;29;20292;-83
2024/02/25 05:10:34;;;;;;;8.40;2.23;;;;;;;;;;4878793;29;20276;-83
2024/02/25 05:13:01;;;;;;;12.20;2.87;;;;;;;;;;4878817;29;20230;-83
2024/02/25 05:15:30;;;;;;;9.67;2.40;;;;;;;;;;4878534;29;20226;-82
2024/02/25 05:17:57;;;;;;;9.13;2.37;;;;;;;;;;4878154;29;20233;-82
2024/02/25 05:20:25;;;;;;;10.37;2.60;;;;;;;;;;4878482;29;20275;-83
2024/02/25 05:22:53;;;;;;;13.20;2.40;;;;;;;;;;4878433;29;20226;-84
2024/02/25 05:25:20;;;;;;;11.40;2.30;;;;;;;;;;4878341;29;20296;-83
2024/02/25 05:27:47;;;;;;;13.00;2.60;;;;;;;;;;4878324;29;20198;-83
2024/02/25 05:30:15;;;;;;;10.93;2.40;;;;;;;;;;4878673;29;20201;-83
2024/02/25 05:32:45;;;;;;;10.47;2.10;;;;;;;;;;4877839;29;20233;-83
2024/02/25 05:35:12;;;;;;;11.47;1.93;;;;;;;;;;4878255;29;20206;-82
2024/02/25 05:37:39;;;;;;;12.07;2.10;;;;;;;;;;4878387;29;20206;-83
2024/02/25 05:40:07;;;;;;;9.17;1.97;;;;;;;;;;4878343;29;20642;-83
2024/02/25 05:42:35;;;;;;;10.87;2.20;;;;;;;;;;4877725;29;20221;-83
2024/02/25 05:45:03;;;;;;;10.60;2.10;;;;;;;;;;4878157;29;20223;-82
2024/02/25 05:47:30;;;;;;;8.87;1.70;;;;;;;;;;4877422;29;20687;-82
2024/02/25 05:49:59;;;;;;;13.00;1.83;;;;;;;;;;4877835;29;20293;-83
2024/02/25 05:52:26;;;;;;;9.67;2.10;;;;;;;;;;4877768;29;20288;-83
2024/02/25 05:54:54;;;;;;;15.60;1.73;;;;;;;;;;4878096;29;20231;-82
2024/02/25 05:57:21;;;;;;;10.93;1.70;;;;;;;;;;4877737;29;20297;-83
2024/02/25 05:59:48;;;;;;;11.03;1.70;;;;;;;;;;4877839;29;20683;-82
2024/02/25 06:02:15;;;;;;;8.67;1.57;;;;;;;;;;4877997;29;20297;-82
2024/02/25 06:04:42;;;;;;;8.93;1.90;;;;;;;;;;4877663;29;20324;-83
2024/02/25 06:07:11;;;;;;;8.27;1.70;;;;;;;;;;4877350;29;20214;-83
2024/02/25 06:09:38;;;;;;;9.80;1.87;;;;;;;;;;4877852;29;20626;-83
2024/02/25 06:12:06;;;;;;;9.43;1.83;;;;;;;;;;4877663;29;20684;-83
2024/02/25 06:14:33;;;;;;;14.00;1.53;;;;;;;;;;4877834;29;20293;-84
2024/02/25 06:17:00;;;;;;;10.83;1.83;;;;;;;;;;4877172;29;20301;-84
2024/02/25 06:19:27;;;;;;;13.33;1.97;;;;;;;;;;4877633;29;20289;-82
2024/02/25 06:21:54;;;;;;;10.70;1.83;;;;;;;;;;4877842;29;20201;-83
2024/02/25 06:24:23;;;;;;;11.70;1.70;;;;;;;;;;4877196;29;20742;-82
2024/02/25 06:26:50;;;;;;;10.90;1.97;;;;;;;;;;4877361;29;20701;-83
2024/02/25 06:29:18;;;;;;;7.70;1.50;;;;;;;;;;4877380;29;20288;-82
2024/02/25 06:31:46;;;;;;;11.80;1.70;;;;;;;;;;4877335;29;20236;-82
2024/02/25 06:34:13;;;;;;;8.20;1.30;;;;;;;;;;4877414;29;20209;-83
2024/02/25 06:36:40;;;;;;;10.20;1.50;;;;;;;;;;4877084;29;20211;-83
2024/02/25 06:39:09;;;;;;;12.57;1.97;;;;;;;;;;4877394;29;20297;-83
2024/02/25 06:41:38;;;;;;;12.67;1.60;;;;;;;;;;4877648;29;20208;-83
2024/02/25 06:44:05;;;;;;;10.27;1.90;;;;;;;;;;4876784;29;20247;-82
2024/02/25 06:46:32;;;;;;;8.40;1.70;;;;;;;;;;4877386;29;20289;-83
2024/02/25 06:48:59;;;;;;;13.27;2.00;;;;;;;;;;4877767;29;20305;-83
2024/02/25 06:51:27;;;;;;;12.73;2.07;;;;;;;;;;4877265;29;20329;-83
2024/02/25 06:53:54;;;;;;;7.93;1.60;;;;;;;;;;4877435;29;20217;-82
2024/02/25 06:56:22;;;;;;;9.20;1.30;;;;;;;;;;4877153;29;20198;-83
2024/02/25 06:58:50;;;;;;;7.93;1.67;;;;;;;;;;4876755;29;20680;-83
2024/02/25 07:01:19;;;;;;;7.43;1.83;;;;;;;;;;4877929;29;20274;-81
2024/02/25 07:03:47;;;;;;;10.10;2.23;;;;;;;;;;4877218;29;20244;-83
2024/02/25 07:06:14;;;;;;;8.53;1.70;;;;;;;;;;4877277;29;20293;-81
2024/02/25 07:08:42;;;;;;;6.73;1.57;;;;;;;;;;4877436;29;20201;-83
2024/02/25 07:11:16;;;;;;;5.30;1.37;;;;;;;;;;4877516;29;20729;-83
2024/02/25 07:13:43;;;;;;;5.97;1.67;;;;;;;;;;4880334;29;20204;-80
2024/02/25 07:16:12;;;;;;;8.70;1.80;;;;;;;;;;4880873;29;20240;-83
2024/02/25 07:18:39;;;;;;;5.27;1.53;;;;;;;;;;4880789;29;20202;-83
2024/02/25 07:21:08;;;;;;;7.07;1.50;;;;;;;;;;4880766;29;20202;-82
2024/02/25 07:23:39;;;;;;;6.93;1.50;;;;;;;;;;4880369;29;20734;-82
2024/02/25 07:26:07;;;;;;;5.70;1.07;;;;;;;;;;4880684;29;20260;-82
2024/02/25 07:28:35;;;;;;;5.20;1.10;;;;;;;;;;4880718;29;20208;-83
2024/02/25 07:31:02;;;;;;;7.17;1.40;;;;;;;;;;4880174;29;20229;-81
2024/02/25 07:33:31;;;;;;;5.60;1.30;;;;;;;;;;4880294;29;20407;-83
2024/02/25 07:35:58;;;;;;;8.23;1.60;;;;;;;;;;4880335;29;20201;-83
2024/02/25 07:38:26;;;;;;;6.93;1.20;;;;;;;;;;4880369;29;20233;-83
2024/02/25 07:40:53;;;;;;;8.73;1.37;;;;;;;;;;4880311;29;20270;-83
2024/02/25 07:43:21;;;;;;;4.93;1.40;;;;;;;;;;4879397;29;20226;-82
2024/02/25 07:45:48;;;;;;;10.47;1.73;;;;;;;;;;4880089;29;20564;-82
2024/02/25 07:48:15;;;;;;;5.23;1.37;;;;;;;;;;4880352;29;20206;-83
2024/02/25 07:50:44;;;;;;;4.60;1.20;;;;;;;;;;4880076;29;20269;-84
2024/02/25 07:53:11;;;;;;;7.10;1.47;;;;;;;;;;4879915;29;20273;-83
2024/02/25 07:55:39;;;;;;;7.63;1.70;;;;;;;;;;4880211;29;20201;-83
2024/02/25 07:58:06;;;;;;;5.77;1.53;;;;;;;;;;4879587;29;20234;-83
2024/02/25 08:00:33;;;;;;;6.47;1.37;;;;;;;;;;4879869;29;20212;-81
2024/02/25 08:03:00;;;;;;;7.67;1.40;;;;;;;;;;4880066;29;20284;-82
2024/02/25 08:05:28;;;;;;;3.33;1.10;;;;;;;;;;4879920;29;20723;-82
2024/02/25 08:07:56;;;;;;;7.47;1.97;;;;;;;;;;4880033;29;20285;-83
2024/02/25 08:10:24;;;;;;;6.07;1.50;;;;;;;;;;4880058;29;20207;-82
2024/02/25 08:12:51;;;;;;;6.43;1.70;;;;;;;;;;4879448;29;20202;-82
2024/02/25 08:15:19;;;;;;;5.00;1.73;;;;;;;;;;4879582;29;20205;-83
2024/02/25 08:17:46;;;;;;;6.27;2.10;;;;;;;;;;4879493;29;20206;-82
2024/02/25 08:20:13;;;;;;;3.50;1.70;;;;;;;;;;4879685;29;20294;-82
2024/02/25 08:22:40;;;;;;;8.23;1.40;;;;;;;;;;4878957;29;20206;-82
2024/02/25 08:25:10;;;;;;;7.00;2.00;;;;;;;;;;4879227;29;20332;-83
2024/02/25 08:27:37;;;;;;;4.80;1.37;;;;;;;;;;4879460;29;20216;-83
2024/02/25 08:30:05;;;;;;;4.87;1.23;;;;;;;;;;4879466;29;20266;-83
2024/02/25 08:32:32;;;;;;;5.60;1.80;;;;;;;;;;4879542;29;20242;-83
2024/02/25 08:35:00;;;;;;;4.03;1.57;;;;;;;;;;4879214;29;20206;-83
2024/02/25 08:37:27;;;;;;;5.50;1.90;;;;;;;;;;4879075;29;20292;-84
2024/02/25 08:39:54;;;;;;;4.47;1.40;;;;;;;;;;4879094;29;20201;-82
2024/02/25 08:42:23;;;;;;;4.43;1.37;;;;;;;;;;4879202;29;20289;-82
2024/02/25 08:44:51;;;;;;;4.00;1.90;;;;;;;;;;4879343;29;20230;-81
2024/02/25 08:47:18;;;;;;;6.77;1.90;;;;;;;;;;4879044;29;20213;-82
2024/02/25 08:49:45;;;;;;;3.40;1.80;;;;;;;;;;4878797;29;20206;-83
2024/02/25 08:52:13;;;;;;;5.03;1.93;;;;;;;;;;4882570;29;20340;-83
2024/02/25 08:54:40;;;;;;;3.93;1.63;;;;;;;;;;4897574;29;20225;-82
2024/02/25 08:57:08;;;;;;;3.47;2.00;;;;;;;;;;4897278;29;20632;-83
2024/02/25 08:59:36;;;;;;;5.23;1.70;;;;;;;;;;4882218;29;20238;-84
2024/02/25 09:02:04;;;;;;;3.27;1.43;;;;;;;;;;4868092;29;20305;-83
2024/02/25 09:04:31;;;;;;;5.40;1.90;;;;;;;;;;4859924;29;20263;-83
2024/02/25 09:06:59;;;;;;;6.77;3.10;;;;;;;;;;4860712;29;20203;-82
2024/02/25 09:09:26;;;;;;;6.57;3.00;;;;;;;;;;4859655;29;20254;-81
2024/02/25 09:11:54;;;;;;;4.40;2.17;;;;;;;;;;4860208;29;20207;-81
2024/02/25 09:14:21;;;;;;;5.53;2.13;;;;;;;;;;4859959;29;20202;-81
2024/02/25 09:16:50;;;;;;;6.70;2.03;;;;;;;;;;4860043;29;20202;-83
2024/02/25 09:19:17;;;;;;;4.90;2.50;;;;;;;;;;4860012;29;20289;-83
2024/02/25 09:21:47;;;;;;;6.93;2.70;;;;;;;;;;4859914;29;20238;-85
2024/02/25 09:24:14;;;;;;;5.93;2.43;;;;;;;;;;4859424;29;20242;-82
2024/02/25 09:26:45;;;;;;;7.17;3.33;;;;;;;;;;4860233;29;20206;-83
2024/02/25 09:29:14;;;;;;;5.93;2.93;;;;;;;;;;4860053;29;20254;-83
2024/02/25 09:31:41;;;;;;;2.73;1.80;;;;;;;;;;4872571;29;20205;-83
2024/02/25 09:34:11;;;;;;;3.10;2.00;;;;;;;;;;4878093;29;20216;-82
2024/02/25 09:36:38;;;;;;;5.23;1.90;;;;;;;;;;4878123;29;20238;-83
2024/02/25 09:39:05;;;;;;;3.60;1.90;;;;;;;;;;4877427;29;20656;-82
2024/02/25 09:41:36;;;;;;;4.67;2.37;;;;;;;;;;4878664;29;20259;-82
2024/02/25 09:44:04;;;;;;;4.90;1.77;;;;;;;;;;4877998;29;20230;-83
2024/02/25 09:46:32;;;;;;;3.90;2.20;;;;;;;;;;4878080;29;20305;-83
2024/02/25 09:48:59;;;;;;;3.30;2.23;;;;;;;;;;4878297;29;20202;-82
2024/02/25 09:51:28;;;;;;;3.10;1.87;;;;;;;;;;4878093;29;20324;-81
2024/02/25 09:53:57;;;;;;;2.60;1.80;;;;;;;;;;4871661;29;20245;-82
2024/02/25 09:56:24;;;;;;;3.23;1.90;;;;;;;;;;4874097;29;20671;-82
2024/02/25 09:58:51;;;;;;;3.33;1.40;;;;;;;;;;4878655;29;20657;-82
2024/02/25 10:01:19;;;;;;;2.53;1.53;;;;;;;;;;4877950;29;20281;-82
2024/02/25 10:03:46;;;;;;;3.33;1.63;;;;;;;;;;4877633;29;20225;-83
2024/02/25 10:06:13;;;;;;;2.13;1.40;;;;;;;;;;4877997;29;20705;-84
2024/02/25 10:08:48;;;;;;;2.93;1.57;;;;;;;;;;4877486;29;20201;-82
2024/02/25 10:11:16;;;;;;;2.47;1.43;;;;;;;;;;4877503;29;20205;-81
2024/02/25 10:13:45;;;;;;;1.87;1.50;;;;;;;;;;4877493;29;20244;-82
2024/02/25 10:16:16;;;;;;;2.70;1.40;;;;;;;;;;4877848;29;20202;-83
2024/02/25 10:18:44;;;;;;;3.10;1.43;;;;;;;;;;4877789;29;20296;-81
2024/02/25 10:21:12;;;;;;;2.77;1.50;;;;;;;;;;4877117;29;20707;-81
2024/02/25 10:23:39;;;;;;;2.23;1.60;;;;;;;;;;4877945;29;20292;-82
2024/02/25 10:26:13;;;;;;;4.23;1.90;;;;;;;;;;4876956;29;20316;-81
2024/02/25 10:28:41;;;;;;;3.23;1.70;;;;;;;;;;4877218;29;20306;-82
2024/02/25 10:31:10;;;;;;;2.17;1.43;;;;;;;;;;4882933;29;20683;-81
2024/02/25 10:33:38;;;;;;;3.87;1.83;;;;;;;;;;4885524;29;20197;-81
2024/02/25 10:36:08;;;;;;;3.83;1.33;;;;;;;;;;4888429;29;20295;-82
2024/02/25 10:38:37;;;;;;;4.83;1.60;;;;;;;;;;4890035;29;20212;-83
2024/02/25 10:41:05;;;;;;;1.87;1.60;;;;;;;;;;4896182;29;20348;-81
2024/02/25 10:43:35;;;;;;;3.20;1.50;;;;;;;;;;4870260;29;20202;-81
2024/02/25 10:46:15;;;;;;;1.90;1.50;;;;;;;;;;4876209;29;20241;-81
2024/02/25 10:48:43;;;;;;;2.53;1.60;;;;;;;;;;4863637;29;20209;-82
2024/02/25 10:51:11;;;;;;;3.40;1.80;;;;;;;;;;4883100;29;20296;-82
2024/02/25 10:53:41;;;;;;;3.20;1.60;;;;;;;;;;4881285;29;20230;-81
2024/02/25 10:56:12;;;;;;;2.77;2.00;;;;;;;;;;4881026;29;20702;-82
2024/02/25 10:58:43;;;;;;;2.47;1.80;;;;;;;;;;4880418;29;20325;-81
2024/02/25 11:01:14;;;;;;;3.63;1.70;;;;;;;;;;4879141;29;20950;-82
2024/02/25 11:03:42;;;;;;;2.77;1.63;;;;;;;;;;4890667;29;20205;-81
2024/02/25 11:06:10;;;;;;;3.07;1.97;;;;;;;;;;4880546;29;20260;-83
2024/02/25 11:08:42;;;;;;;2.47;1.70;;;;;;;;;;4895921;29;20240;-83
2024/02/25 11:11:10;;;;;;;1.77;1.63;;;;;;;;;;4878809;29;20680;-82
2024/02/25 11:13:44;;;;;;;2.90;1.70;;;;;;;;;;4895702;29;20205;-82
2024/02/25 11:16:11;;;;;;;2.47;1.87;;;;;;;;;;4899157;29;20662;-83
2024/02/25 11:18:41;;;;;;;3.20;2.20;;;;;;;;;;4899321;29;20280;-82
2024/02/25 11:21:09;;;;;;;2.03;1.67;;;;;;;;;;4886800;29;20220;-82
2024/02/25 11:23:43;;;;;;;3.60;1.70;;;;;;;;;;4894658;29;20208;-82
2024/02/25 11:26:28;;;;;;;3.70;2.10;;;;;;;;;;4898568;29;20240;-83
2024/02/25 11:29:10;;;;;;;2.10;1.60;;;;;;;;;;4882295;29;20206;-83
2024/02/25 11:31:52;;;;;;;2.03;1.67;;;;;;;;;;4879641;29;20249;-82
2024/02/25 11:34:22;;;;;;;2.10;1.80;;;;;;;;;;4878174;29;20664;-83
2024/02/25 11:36:57;;;;;;;3.23;2.40;;;;;;;;;;4880595;29;20257;-83
2024/02/25 11:39:26;;;;;;;3.27;1.80;;;;;;;;;;4880218;29;20312;-83
2024/02/25 11:41:54;;;;;;;2.30;1.67;;;;;;;;;;4870631;29;20213;-83
2024/02/25 11:44:23;;;;;;;3.60;2.80;;;;;;;;;;4898801;29;20244;-80
2024/02/25 11:46:51;;;;;;;2.93;2.00;;;;;;;;;;4898946;29;20201;-81
2024/02/25 11:49:19;;;;;;;2.73;2.03;;;;;;;;;;4893929;29;20316;-81
2024/02/25 11:51:47;;;;;;;3.03;2.30;;;;;;;;;;4879662;29;20638;-81
2024/02/25 11:54:14;;;;;;;3.50;2.20;;;;;;;;;;4879545;29;20285;-81
2024/02/25 11:56:41;;;;;;;2.63;2.20;;;;;;;;;;4879506;29;20229;-80
2024/02/25 11:59:09;;;;;;;2.37;1.87;;;;;;;;;;4879121;29;20641;-80
2024/02/25 12:01:38;;;;;;;3.13;2.60;;;;;;;;;;4879814;29;20206;-80
2024/02/25 12:04:06;;;;;;;2.30;1.77;;;;;;;;;;4879354;29;20198;-81
2024/02/25 12:06:35;;;;;;;2.63;2.37;;;;;;;;;;4877930;29;20237;-81
2024/02/25 12:09:05;;;;;;;2.67;2.10;;;;;;;;;;4861127;29;20206;-81
2024/02/25 12:11:32;;;;;;;4.97;2.10;;;;;;;;;;4860695;29;20658;-81
2024/02/25 12:14:03;;;;;;;2.70;1.57;;;;;;;;;;4860800;29;20329;-80
2024/02/25 12:16:31;;;;;;;1.90;1.40;;;;;;;;;;4889147;29;20237;-80
2024/02/25 12:18:59;;;;;;;3.70;1.87;;;;;;;;;;4897446;29;20209;-80
2024/02/25 12:21:28;;;;;;;1.60;1.27;;;;;;;;;;4891130;29;20198;-79
2024/02/25 12:23:57;;;;;;;2.60;1.47;;;;;;;;;;4879274;29;20209;-80
2024/02/25 12:26:24;;;;;;;2.60;1.33;;;;;;;;;;4891980;29;20274;-79
2024/02/25 12:28:51;;;;;;;1.60;1.40;;;;;;;;;;4892654;29;20217;-80
2024/02/25 12:31:19;;;;;;;1.70;1.33;;;;;;;;;;4879459;29;20225;-81
2024/02/25 12:33:48;;;;;;;1.90;1.30;;;;;;;;;;4888035;29;20201;-79
2024/02/25 12:36:15;;;;;;;3.00;1.50;;;;;;;;;;4897794;29;20219;-79
2024/02/25 12:38:53;;;;;;;2.50;1.60;;;;;;;;;;4882012;29;20277;-81
2024/02/25 12:41:20;;;;;;;2.00;1.13;;;;;;;;;;4861842;29;20817;-82
2024/02/25 12:43:51;;;;;;;2.00;1.57;;;;;;;;;;4884185;29;20225;-77
2024/02/25 12:46:20;;;;;;;2.77;2.37;;;;;;;;;;4895155;29;20316;-84
2024/02/25 12:48:49;;;;;;;2.10;1.80;;;;;;;;;;4884807;29;20556;-85
2024/02/25 12:51:17;;;;;;;1.80;1.60;;;;;;;;;;4895835;29;20301;-85
2024/02/25 12:53:45;;;;;;;2.07;1.50;;;;;;;;;;4894635;29;20663;-83
2024/02/25 12:56:14;;;;;;;1.97;1.77;;;;;;;;;;4883912;29;20262;-82
2024/02/25 12:58:42;;;;;;;3.57;2.20;;;;;;;;;;4885661;29;20232;-83
2024/02/25 13:01:10;;;;;;;2.73;1.90;;;;;;;;;;4894075;29;20246;-83
2024/02/25 13:03:37;;;;;;;2.60;1.60;;;;;;;;;;4888433;29;20659;-83
2024/02/25 13:06:08;;;;;;;2.30;1.70;;;;;;;;;;4887520;29;20320;-82
2024/02/25 13:08:35;;;;;;;1.87;1.60;;;;;;;;;;4882266;29;20590;-82
2024/02/25 13:11:02;;;;;;;1.57;1.47;;;;;;;;;;4883624;29;20206;-83
2024/02/25 13:13:31;;;;;;;1.73;1.57;;;;;;;;;;4888473;29;20279;-84
2024/02/25 13:16:00;;;;;;;1.80;1.60;;;;;;;;;;4889098;29;20628;-84
2024/02/25 13:18:28;;;;;;;1.60;1.33;;;;;;;;;;4887620;29;20206;-82
2024/02/25 13:20:55;;;;;;;1.67;1.47;;;;;;;;;;4890044;29;20707;-83
2024/02/25 13:23:22;;;;;;;1.77;1.67;;;;;;;;;;4894429;29;20292;-83
2024/02/25 13:25:49;;;;;;;1.90;1.57;;;;;;;;;;4891669;29;20225;-84
2024/02/25 13:28:17;;;;;;;1.50;1.40;;;;;;;;;;4896407;29;20292;-84
2024/02/25 13:30:46;;;;;;;1.60;1.33;;;;;;;;;;4889715;29;20218;-84
2024/02/25 13:33:15;;;;;;;2.83;1.70;;;;;;;;;;4887219;29;20212;-83
2024/02/25 13:35:42;;;;;;;2.00;1.80;;;;;;;;;;4889822;29;20791;-84
2024/02/25 13:38:09;;;;;;;2.10;1.70;;;;;;;;;;4886489;29;20266;-84
2024/02/25 13:40:37;;;;;;;1.40;1.30;;;;;;;;;;4895881;29;20221;-84
2024/02/25 13:43:05;;;;;;;3.60;2.87;;;;;;;;;;4895901;29;20754;-83
2024/02/25 13:45:34;;;;;;;2.30;2.00;;;;;;;;;;4885655;29;20233;-85
2024/02/25 13:48:05;;;;;;;2.10;1.40;;;;;;;;;;4882656;29;20210;-85
2024/02/25 13:50:32;;;;;;;1.20;1.00;;;;;;;;;;4885040;29;20333;-85
2024/02/25 13:53:01;;;;;;;1.20;1.10;;;;;;;;;;4880503;29;20213;-86
2024/02/25 13:55:28;;;;;;;1.90;1.47;;;;;;;;;;4878275;29;20214;-83
2024/02/25 13:57:55;;;;;;;1.40;1.20;;;;;;;;;;4882517;29;20286;-84
2024/02/25 14:00:24;;;;;;;1.90;1.10;;;;;;;;;;4884112;29;20209;-85
2024/02/25 14:02:52;;;;;;;1.97;1.30;;;;;;;;;;4879257;29;20635;-85
2024/02/25 14:05:21;;;;;;;1.50;1.20;;;;;;;;;;4878870;29;20660;-84
2024/02/25 14:07:49;;;;;;;3.00;2.20;;;;;;;;;;4877546;29;20206;-85
2024/02/25 14:10:16;;;;;;;2.03;1.70;;;;;;;;;;4883264;29;20683;-84
2024/02/25 14:12:44;;;;;;;1.77;1.43;;;;;;;;;;4879833;29;20245;-86
2024/02/25 14:15:11;;;;;;;2.10;1.70;;;;;;;;;;4881457;29;20214;-84
2024/02/25 14:17:39;;;;;;;1.60;1.33;;;;;;;;;;4879423;29;20288;-84
2024/02/25 14:20:10;;;;;;;1.80;1.30;;;;;;;;;;4877354;29;20348;-84
2024/02/25 14:22:40;;;;;;;2.10;1.20;;;;;;;;;;4884262;29;20218;-86
2024/02/25 14:25:08;;;;;;;1.77;1.33;;;;;;;;;;4894719;29;20197;-84
2024/02/25 14:27:35;;;;;;;1.60;1.23;;;;;;;;;;4892988;29;20667;-84
2024/02/25 14:30:04;;;;;;;1.50;1.33;;;;;;;;;;4895046;29;20288;-84
2024/02/25 14:32:31;;;;;;;1.70;1.20;;;;;;;;;;4896191;29;20193;-85
2024/02/25 14:34:58;;;;;;;1.20;1.10;;;;;;;;;;4895787;29;20245;-84
2024/02/25 14:37:26;;;;;;;1.63;1.47;;;;;;;;;;4890515;29;20233;-83
2024/02/25 14:39:54;;;;;;;1.57;1.37;;;;;;;;;;4890517;29;20232;-84
2024/02/25 14:42:23;;;;;;;1.80;1.60;;;;;;;;;;4895793;29;20289;-86